createdAt,value
2022-12-22T00:02:40.298Z,8.93
2022-12-22T00:08:21.984Z,7.68
2022-12-22T00:11:07.473Z,8.00
2022-12-22T00:13:53.733Z,8.50
2022-12-22T00:16:39.719Z,8.30
2022-12-22T00:19:32.292Z,9.50
2022-12-22T00:22:28.749Z,9.20
2022-12-22T00:25:14.166Z,7.95
2022-12-22T00:27:59.972Z,9.02
2022-12-22T00:30:45.514Z,8.82
2022-12-22T00:33:34.882Z,9.10
2022-12-22T00:36:22.321Z,8.77
2022-12-22T00:39:07.488Z,9.02
2022-12-22T00:41:52.843Z,9.18
2022-12-22T00:44:38.038Z,9.25
2022-12-22T00:47:23.447Z,9.02
2022-12-22T00:50:09.216Z,9.20
2022-12-22T00:52:55.513Z,9.00
2022-12-22T00:55:48.358Z,9.18
2022-12-22T00:58:37.216Z,8.93
2022-12-22T01:01:22.775Z,8.68
2022-12-22T01:04:08.160Z,8.43
2022-12-22T01:06:54.891Z,9.32
2022-12-22T01:09:41.723Z,8.23
2022-12-22T01:12:39.133Z,9.18
2022-12-22T01:15:34.622Z,8.50
2022-12-22T01:18:20.095Z,8.95
2022-12-22T01:21:05.498Z,9.02
2022-12-22T01:23:51.209Z,8.85
2022-12-22T01:26:39.112Z,9.38
2022-12-22T01:29:24.890Z,8.82
2022-12-22T01:32:10.687Z,8.43
2022-12-22T01:34:55.971Z,8.90
2022-12-22T01:37:41.691Z,9.05
2022-12-22T01:40:35.786Z,9.07
2022-12-22T01:43:24.293Z,8.07
2022-12-22T01:46:09.845Z,7.90
2022-12-22T01:48:55.142Z,8.32
2022-12-22T01:51:46.103Z,7.93
2022-12-22T01:54:33.103Z,9.13
2022-12-22T01:57:19.081Z,9.23
2022-12-22T02:00:04.844Z,8.45
2022-12-22T02:02:51.761Z,9.60
2022-12-22T02:05:39.157Z,9.27
2022-12-22T02:08:38.936Z,9.25
2022-12-22T02:12:02.259Z,11.18
2022-12-22T02:15:03.477Z,10.02
2022-12-22T02:17:57.040Z,9.25
2022-12-22T02:21:07.782Z,9.45
2022-12-22T02:24:14.235Z,10.60
2022-12-22T02:27:12.748Z,9.48
2022-12-22T02:30:29.482Z,9.40
2022-12-22T02:33:14.819Z,9.98
2022-12-22T02:36:21.431Z,8.90
2022-12-22T02:39:18.959Z,11.10
2022-12-22T02:42:28.876Z,9.75
2022-12-22T02:45:37.388Z,9.05
2022-12-22T02:48:35.885Z,10.68
2022-12-22T02:51:28.782Z,8.57
2022-12-22T02:54:15.746Z,8.68
2022-12-22T02:57:01.939Z,10.55
2022-12-22T02:59:47.183Z,10.43
2022-12-22T03:02:32.782Z,9.55
2022-12-22T03:05:18.358Z,10.35
2022-12-22T03:08:08.225Z,10.40
2022-12-22T03:10:54.968Z,9.43
2022-12-22T03:13:40.923Z,9.90
2022-12-22T03:16:26.426Z,10.07
2022-12-22T03:19:11.916Z,9.07
2022-12-22T03:21:57.219Z,9.30
2022-12-22T03:24:42.609Z,9.63
2022-12-22T03:27:09.547Z,9.75
2022-12-22T03:29:36.369Z,8.73
2022-12-22T03:32:03.519Z,9.65
2022-12-22T03:34:30.315Z,9.60
2022-12-22T03:36:57.150Z,10.45
2022-12-22T03:39:23.957Z,9.65
2022-12-22T03:42:09.220Z,10.93
2022-12-22T03:44:54.515Z,10.45
2022-12-22T03:47:21.334Z,9.15
2022-12-22T03:49:48.162Z,9.98
2022-12-22T03:52:15.014Z,10.45
2022-12-22T03:54:45.413Z,11.02
2022-12-22T03:57:12.208Z,9.73
2022-12-22T03:59:39.076Z,9.98
2022-12-22T04:02:06.699Z,11.43
2022-12-22T04:04:34.040Z,11.20
2022-12-22T04:07:00.901Z,11.30
2022-12-22T04:09:29.248Z,9.80
2022-12-22T04:12:14.731Z,9.13
2022-12-22T04:14:41.650Z,9.30
2022-12-22T04:17:09.749Z,10.98
2022-12-22T04:19:36.742Z,10.18
2022-12-22T04:22:03.586Z,9.98
2022-12-22T04:24:30.372Z,11.00
2022-12-22T04:26:57.248Z,9.25
2022-12-22T04:29:24.140Z,10.25
2022-12-22T04:31:50.989Z,9.10
2022-12-22T04:34:17.917Z,10.57
2022-12-22T04:36:44.763Z,9.73
2022-12-22T04:39:11.613Z,8.23
2022-12-22T04:41:38.446Z,9.30
2022-12-22T04:44:05.380Z,10.20
2022-12-22T04:46:33.392Z,8.48
2022-12-22T04:49:00.841Z,9.48
2022-12-22T04:51:28.301Z,10.32
2022-12-22T04:53:55.179Z,9.38
2022-12-22T04:56:22.047Z,8.85
2022-12-22T04:58:48.876Z,9.85
2022-12-22T05:01:18.273Z,10.10
2022-12-22T05:03:46.124Z,10.13
2022-12-22T05:06:13.507Z,9.93
2022-12-22T05:08:40.666Z,10.27
2022-12-22T05:11:07.855Z,8.57
2022-12-22T05:13:35.096Z,8.80
2022-12-22T05:16:13.823Z,8.60
2022-12-22T05:18:41.840Z,10.00
2022-12-22T05:21:13.317Z,9.15
2022-12-22T05:23:40.253Z,7.95
2022-12-22T05:26:07.613Z,9.13
2022-12-22T05:28:34.867Z,10.10
2022-12-22T05:31:10.947Z,11.07
2022-12-22T05:33:37.902Z,9.35
2022-12-22T05:36:04.974Z,10.60
2022-12-22T05:38:31.868Z,8.52
2022-12-22T05:41:03.945Z,9.48
2022-12-22T05:43:35.040Z,10.57
2022-12-22T05:46:04.464Z,9.40
2022-12-22T05:48:37.340Z,10.93
2022-12-22T05:51:06.649Z,10.02
2022-12-22T05:53:34.788Z,9.00
2022-12-22T05:56:01.607Z,10.43
2022-12-22T05:58:28.494Z,9.05
2022-12-22T06:00:59.972Z,9.43
2022-12-22T06:03:28.602Z,9.88
2022-12-22T06:05:56.124Z,9.50
2022-12-22T06:08:23.742Z,8.75
2022-12-22T06:10:50.646Z,8.57
2022-12-22T06:13:17.443Z,9.15
2022-12-22T06:15:44.326Z,8.57
2022-12-22T06:18:11.268Z,8.07
2022-12-22T06:20:38.088Z,8.57
2022-12-22T06:23:05.001Z,8.75
2022-12-22T06:25:32.006Z,9.30
2022-12-22T06:27:58.983Z,9.18
2022-12-22T06:30:32.653Z,8.73
2022-12-22T06:35:27.759Z,7.15
2022-12-22T06:37:54.595Z,8.02
2022-12-22T06:40:21.410Z,8.68
2022-12-22T06:43:09.145Z,7.10
2022-12-22T06:45:42.132Z,8.80
2022-12-22T06:48:10.784Z,7.00
2022-12-22T06:50:37.630Z,6.68
2022-12-22T06:53:05.785Z,7.13
2022-12-22T06:55:32.642Z,8.45
2022-12-22T06:57:59.547Z,9.02
2022-12-22T07:00:26.582Z,8.13
2022-12-22T07:02:53.757Z,9.43
2022-12-22T07:05:20.770Z,9.25
2022-12-22T07:07:47.819Z,10.10
2022-12-22T07:10:14.692Z,10.25
2022-12-22T07:12:41.878Z,10.15
2022-12-22T07:15:09.898Z,9.57
2022-12-22T07:17:36.987Z,10.32
2022-12-22T07:20:04.146Z,8.40
2022-12-22T07:22:31.315Z,9.10
2022-12-22T07:25:01.700Z,8.13
2022-12-22T07:27:28.545Z,8.57
2022-12-22T07:29:55.402Z,6.78
2022-12-22T07:32:22.246Z,8.40
2022-12-22T07:34:49.039Z,7.43
2022-12-22T07:37:16.119Z,8.63
2022-12-22T07:39:42.937Z,8.10
2022-12-22T07:42:30.852Z,7.72
2022-12-22T07:44:57.684Z,9.50
2022-12-22T07:47:27.268Z,7.55
2022-12-22T07:50:15.318Z,6.68
2022-12-22T07:52:42.456Z,7.10
2022-12-22T07:55:09.570Z,7.90
2022-12-22T07:57:36.379Z,8.10
2022-12-22T08:00:03.835Z,7.45
2022-12-22T08:02:36.879Z,7.28
2022-12-22T08:05:04.156Z,8.43
2022-12-22T08:07:32.654Z,6.80
2022-12-22T08:09:59.732Z,7.28
2022-12-22T08:12:28.062Z,8.98
2022-12-22T08:14:55.005Z,7.22
2022-12-22T08:17:21.997Z,6.90
2022-12-22T08:19:49.036Z,7.05
2022-12-22T08:22:15.803Z,7.28
2022-12-22T08:24:42.603Z,8.55
2022-12-22T08:27:19.487Z,7.95
2022-12-22T08:29:56.796Z,7.60
2022-12-22T08:32:23.736Z,7.70
2022-12-22T08:34:51.565Z,8.93
2022-12-22T08:37:22.019Z,9.35
2022-12-22T08:39:53.184Z,8.38
2022-12-22T08:42:22.544Z,9.52
2022-12-22T08:44:53.288Z,10.60
2022-12-22T08:47:21.023Z,9.35
2022-12-22T08:49:48.839Z,8.55
2022-12-22T08:52:18.683Z,7.88
2022-12-22T08:54:46.550Z,9.60
2022-12-22T08:57:13.457Z,8.93
2022-12-22T08:59:40.289Z,10.00
2022-12-22T09:02:07.312Z,9.63
2022-12-22T09:04:34.953Z,10.32
2022-12-22T09:07:02.733Z,8.10
2022-12-22T09:09:34.356Z,8.57
2022-12-22T09:12:02.956Z,9.23
2022-12-22T09:14:30.645Z,9.50
2022-12-22T09:16:57.474Z,8.93
2022-12-22T09:19:24.359Z,6.72
2022-12-22T09:21:51.272Z,8.43
2022-12-22T09:24:18.519Z,7.53
2022-12-22T09:26:45.427Z,7.68
2022-12-22T09:29:15.384Z,6.53
2022-12-22T09:31:43.138Z,8.57
2022-12-22T09:34:15.329Z,7.07
2022-12-22T09:36:45.172Z,6.28
2022-12-22T09:39:12.465Z,7.15
2022-12-22T09:41:50.812Z,7.00
2022-12-22T09:44:25.382Z,7.00
2022-12-22T09:46:55.648Z,6.78
2022-12-22T09:49:23.009Z,6.60
2022-12-22T09:51:54.401Z,6.68
2022-12-22T09:54:21.889Z,6.47
2022-12-22T09:56:49.277Z,5.65
2022-12-22T09:59:18.256Z,6.07
2022-12-22T10:01:51.319Z,5.93
2022-12-22T10:04:45.626Z,6.35
2022-12-22T10:07:31.198Z,6.20
2022-12-22T10:10:04.800Z,6.05
2022-12-22T10:12:31.758Z,5.20
2022-12-22T10:14:58.565Z,6.25
2022-12-22T10:17:33.812Z,5.53
2022-12-22T10:20:19.131Z,6.20
2022-12-22T10:22:56.281Z,6.53
2022-12-22T10:25:39.937Z,6.63
2022-12-22T10:28:24.723Z,5.63
2022-12-22T10:31:12.266Z,5.70
2022-12-22T10:33:45.899Z,4.22
2022-12-22T10:36:28.472Z,5.70
2022-12-22T10:39:10.855Z,4.32
2022-12-22T10:41:45.000Z,4.78
2022-12-22T10:44:21.355Z,4.32
2022-12-22T10:47:17.843Z,5.68
2022-12-22T10:49:49.668Z,5.07
2022-12-22T10:52:27.325Z,4.57
2022-12-22T10:55:16.681Z,4.05
2022-12-22T10:57:43.597Z,4.45
2022-12-22T11:00:23.425Z,5.35
2022-12-22T11:02:56.386Z,4.45
2022-12-22T11:05:23.667Z,4.95
2022-12-22T11:07:50.611Z,6.15
2022-12-22T11:10:40.157Z,4.80
2022-12-22T11:13:31.770Z,4.78
2022-12-22T11:16:23.425Z,4.28
2022-12-22T11:18:53.094Z,4.93
2022-12-22T11:21:53.946Z,4.72
2022-12-22T11:24:51.304Z,4.43
2022-12-22T11:27:46.604Z,4.40
2022-12-22T11:30:27.348Z,4.93
2022-12-22T11:33:00.372Z,4.57
2022-12-22T11:35:57.428Z,4.75
2022-12-22T11:38:47.005Z,4.45
2022-12-22T11:41:23.162Z,4.07
2022-12-22T11:44:02.077Z,3.92
2022-12-22T11:46:49.064Z,5.15
2022-12-22T11:49:40.630Z,4.22
2022-12-22T11:52:25.598Z,3.60
2022-12-22T11:54:55.398Z,4.03
2022-12-22T11:57:50.271Z,3.65
2022-12-22T12:00:19.096Z,4.40
2022-12-22T12:02:49.336Z,2.92
2022-12-22T12:05:34.426Z,3.42
2022-12-22T12:08:34.783Z,3.58
2022-12-22T12:11:11.665Z,3.08
2022-12-22T12:13:59.653Z,3.95
2022-12-22T12:16:52.841Z,4.25
2022-12-22T12:19:34.676Z,3.75
2022-12-22T12:22:08.848Z,4.13
2022-12-22T12:24:51.430Z,3.65
2022-12-22T12:27:42.479Z,3.85
2022-12-22T12:33:34.956Z,4.05
2022-12-22T12:36:18.747Z,4.28
2022-12-22T12:39:14.189Z,3.42
2022-12-22T12:42:23.525Z,4.05
2022-12-22T12:44:52.325Z,5.25
2022-12-22T12:47:35.910Z,4.05
2022-12-22T12:50:23.748Z,3.72
2022-12-22T12:52:50.801Z,3.70
2022-12-22T12:55:32.309Z,4.00
2022-12-22T12:58:02.351Z,3.90
2022-12-22T13:00:32.784Z,3.40
2022-12-22T13:03:01.407Z,5.25
2022-12-22T13:05:51.301Z,4.10
2022-12-22T13:08:20.907Z,4.10
2022-12-22T13:10:53.799Z,3.85
2022-12-22T13:13:27.377Z,4.05
2022-12-22T13:16:00.454Z,4.23
2022-12-22T13:18:28.473Z,4.00
2022-12-22T13:21:26.199Z,4.50
2022-12-22T13:24:29.119Z,4.32
2022-12-22T13:26:47.677Z,4.15
2022-12-22T13:29:23.005Z,5.25
2022-12-22T13:32:04.899Z,4.07
2022-12-22T13:35:04.337Z,5.72
2022-12-22T13:37:29.242Z,5.00
2022-12-22T13:40:16.889Z,4.13
2022-12-22T13:42:47.162Z,3.70
2022-12-22T13:45:18.958Z,3.53
2022-12-22T13:47:48.399Z,3.72
2022-12-22T13:50:41.655Z,3.85
2022-12-22T13:53:22.844Z,3.47
2022-12-22T13:55:58.878Z,3.95
2022-12-22T13:58:30.180Z,2.85
2022-12-22T14:01:10.531Z,2.97
2022-12-22T14:04:00.260Z,3.95
2022-12-22T14:06:39.796Z,2.55
2022-12-22T14:09:26.841Z,2.15
2022-12-22T14:12:02.877Z,3.25
2022-12-22T14:14:35.616Z,2.63
2022-12-22T14:17:03.279Z,2.78
2022-12-22T14:19:38.719Z,2.25
2022-12-22T14:22:19.633Z,2.30
2022-12-22T14:24:54.883Z,2.88
2022-12-22T14:27:44.524Z,3.50
2022-12-22T14:30:21.562Z,2.58
2022-12-22T14:32:55.107Z,3.42
2022-12-22T14:35:22.684Z,2.42
2022-12-22T14:38:12.775Z,2.58
2022-12-22T14:40:42.233Z,3.08
2022-12-22T14:43:18.350Z,3.15
2022-12-22T14:45:47.216Z,2.47
2022-12-22T14:48:49.796Z,3.05
2022-12-22T14:51:19.999Z,2.63
2022-12-22T14:53:59.877Z,2.53
2022-12-22T14:56:28.136Z,3.05
2022-12-22T14:59:21.842Z,3.58
2022-12-22T15:02:04.988Z,2.58
2022-12-22T15:04:32.108Z,2.70
2022-12-22T15:07:54.300Z,2.55
2022-12-22T15:10:20.995Z,3.47
2022-12-22T15:12:49.495Z,2.80
2022-12-22T15:15:22.183Z,4.20
2022-12-22T15:17:52.113Z,2.53
2022-12-22T15:20:25.250Z,2.63
2022-12-22T15:22:52.334Z,2.60
2022-12-22T15:25:22.065Z,2.55
2022-12-22T15:27:49.407Z,2.22
2022-12-22T15:30:27.639Z,3.22
2022-12-22T15:32:56.544Z,2.72
2022-12-22T15:35:34.728Z,3.28
2022-12-22T15:38:02.101Z,3.67
2022-12-22T15:40:29.344Z,4.38
2022-12-22T15:42:56.141Z,2.85
2022-12-22T15:45:23.277Z,4.50
2022-12-22T15:47:52.486Z,3.85
2022-12-22T15:50:33.565Z,3.28
2022-12-22T15:53:06.138Z,4.43
2022-12-22T15:55:36.546Z,4.00
2022-12-22T15:58:03.769Z,3.90
2022-12-22T16:00:30.631Z,4.13
2022-12-22T16:02:57.622Z,3.95
2022-12-22T16:05:24.605Z,3.83
2022-12-22T16:07:51.557Z,4.18
2022-12-22T16:10:27.238Z,4.63
2022-12-22T16:13:00.653Z,3.78
2022-12-22T16:15:34.834Z,4.43
2022-12-22T16:18:03.524Z,4.35
2022-12-22T16:20:37.791Z,5.10
2022-12-22T16:23:07.095Z,4.75
2022-12-22T16:25:37.658Z,4.47
2022-12-22T16:28:06.041Z,4.93
2022-12-22T16:30:34.470Z,5.60
2022-12-22T16:33:01.378Z,6.00
2022-12-22T16:35:30.475Z,5.75
2022-12-22T16:38:00.549Z,5.45
2022-12-22T16:40:28.405Z,6.05
2022-12-22T16:45:48.332Z,6.43
2022-12-22T16:48:54.391Z,6.10
2022-12-22T16:51:33.844Z,5.28
2022-12-22T16:54:01.769Z,5.55
2022-12-22T16:56:31.118Z,6.43
2022-12-22T16:59:05.235Z,7.53
2022-12-22T17:01:57.555Z,6.93
2022-12-22T17:04:25.972Z,6.82
2022-12-22T17:06:54.891Z,7.30
2022-12-22T17:09:32.013Z,6.13
2022-12-22T17:12:01.136Z,6.00
2022-12-22T17:14:30.167Z,6.40
2022-12-22T17:17:00.326Z,7.35
2022-12-22T17:19:27.409Z,6.97
2022-12-22T17:21:57.797Z,7.95
2022-12-22T17:24:28.571Z,6.75
2022-12-22T17:26:59.764Z,7.78
2022-12-22T17:29:26.709Z,8.48
2022-12-22T17:31:56.393Z,8.15
2022-12-22T17:34:23.982Z,8.57
2022-12-22T17:36:51.392Z,7.40
2022-12-22T17:39:22.755Z,7.60
2022-12-22T17:41:56.419Z,7.82
2022-12-22T17:46:52.319Z,6.72
2022-12-22T17:49:22.158Z,7.55
2022-12-22T17:51:49.815Z,7.70
2022-12-22T17:54:25.892Z,7.97
2022-12-22T17:56:58.520Z,8.32
2022-12-22T17:59:25.394Z,7.82
2022-12-22T18:01:52.361Z,7.75
2022-12-22T18:04:19.518Z,7.47
2022-12-22T18:06:46.972Z,8.70
2022-12-22T18:09:24.020Z,7.60
2022-12-22T18:11:51.713Z,7.45
2022-12-22T18:14:20.856Z,7.00
2022-12-22T18:16:47.911Z,7.60
2022-12-22T18:19:14.970Z,7.32
2022-12-22T18:21:41.958Z,6.47
2022-12-22T18:24:19.262Z,8.70
2022-12-22T18:26:47.156Z,7.60
2022-12-22T18:29:18.515Z,7.80
2022-12-22T18:31:45.882Z,9.30
2022-12-22T18:34:12.932Z,8.38
2022-12-22T18:36:42.487Z,8.25
2022-12-22T18:39:17.919Z,7.80
2022-12-22T18:41:44.977Z,9.25
2022-12-22T18:44:19.003Z,8.18
2022-12-22T18:46:47.245Z,7.25
2022-12-22T18:49:14.819Z,7.88
2022-12-22T18:51:43.621Z,8.30
2022-12-22T18:54:33.367Z,8.07
2022-12-22T18:57:00.335Z,9.57
2022-12-22T18:59:29.916Z,9.38
2022-12-22T19:02:03.644Z,8.68
2022-12-22T19:04:30.729Z,9.30
2022-12-22T19:06:57.575Z,8.10
2022-12-22T19:09:26.913Z,10.35
2022-12-22T19:11:53.858Z,9.50
2022-12-22T19:14:22.394Z,8.57
2022-12-22T19:16:49.349Z,8.02
2022-12-22T19:19:18.861Z,9.43
2022-12-22T19:21:48.763Z,8.57
2022-12-22T19:24:15.757Z,9.68
2022-12-22T19:26:42.833Z,9.98
2022-12-22T19:29:12.840Z,9.93
2022-12-22T19:31:40.168Z,9.30
2022-12-22T19:34:15.173Z,9.50
2022-12-22T19:36:42.013Z,10.68
2022-12-22T19:39:09.078Z,9.70
2022-12-22T19:41:43.894Z,10.18
2022-12-22T19:44:28.024Z,10.82
2022-12-22T19:46:56.252Z,10.15
2022-12-22T19:49:49.118Z,10.07
2022-12-22T19:52:16.068Z,10.02
2022-12-22T19:54:42.962Z,9.73
2022-12-22T19:57:21.083Z,10.32
2022-12-22T20:00:33.566Z,9.60
2022-12-22T20:03:00.530Z,10.02
2022-12-22T20:05:32.474Z,10.27
2022-12-22T20:08:01.139Z,10.73
2022-12-22T20:10:31.006Z,9.95
2022-12-22T20:13:01.891Z,10.82
2022-12-22T20:15:37.367Z,8.32
2022-12-22T20:18:48.018Z,10.45
2022-12-22T20:21:27.330Z,10.20
2022-12-22T20:24:29.560Z,9.93
2022-12-22T20:27:04.929Z,9.65
2022-12-22T20:29:50.433Z,9.32
2022-12-22T20:32:22.312Z,10.88
2022-12-22T20:34:54.359Z,10.05
2022-12-22T20:37:21.191Z,9.63
2022-12-22T20:39:48.035Z,9.38
2022-12-22T20:42:19.889Z,11.68
2022-12-22T20:45:02.968Z,9.80
2022-12-22T20:47:52.329Z,9.85
2022-12-22T20:50:22.875Z,10.60
2022-12-22T20:52:54.718Z,9.82
2022-12-22T20:55:24.147Z,10.73
2022-12-22T20:57:51.966Z,11.07
2022-12-22T21:00:20.132Z,10.10
2022-12-22T21:02:47.349Z,11.52
2022-12-22T21:05:15.561Z,9.68
2022-12-22T21:07:47.841Z,9.77
2022-12-22T21:10:24.392Z,10.52
2022-12-22T21:12:51.305Z,9.52
2022-12-22T21:15:19.543Z,10.38
2022-12-22T21:17:51.423Z,10.20
2022-12-22T21:20:32.407Z,9.75
2022-12-22T21:22:59.289Z,10.48
2022-12-22T21:25:26.754Z,9.77
2022-12-22T21:27:53.876Z,9.70
2022-12-22T21:30:28.421Z,10.40
2022-12-22T21:32:56.049Z,10.43
2022-12-22T21:35:36.340Z,10.68
2022-12-22T21:38:03.852Z,10.50
2022-12-22T21:40:32.229Z,10.20
2022-12-22T21:42:59.415Z,12.48
2022-12-22T21:45:28.602Z,10.18
2022-12-22T21:47:56.079Z,11.10
2022-12-22T21:50:24.910Z,11.73
2022-12-22T21:52:52.677Z,10.52
2022-12-22T21:55:41.470Z,9.95
2022-12-22T21:58:11.625Z,10.57
2022-12-22T22:00:46.855Z,11.75
2022-12-22T22:03:14.756Z,10.70
2022-12-22T22:05:42.822Z,11.32
2022-12-22T22:08:11.690Z,11.50
2022-12-22T22:10:41.594Z,10.48
2022-12-22T22:13:11.408Z,11.73
2022-12-22T22:15:38.451Z,11.65
2022-12-22T22:18:07.562Z,9.93
2022-12-22T22:20:34.985Z,10.82
2022-12-22T22:23:01.948Z,10.05
2022-12-22T22:25:28.887Z,11.73
2022-12-22T22:27:59.794Z,10.70
2022-12-22T22:30:26.952Z,10.52
2022-12-22T22:32:55.064Z,10.95
2022-12-22T22:35:23.430Z,9.68
2022-12-22T22:37:51.369Z,10.88
2022-12-22T22:40:21.001Z,10.32
2022-12-22T22:42:48.541Z,10.40
2022-12-22T22:45:17.292Z,11.73
2022-12-22T22:47:44.137Z,11.48
2022-12-22T22:50:11.169Z,9.98
2022-12-22T22:52:38.185Z,11.60
2022-12-22T22:55:05.338Z,10.10
2022-12-22T22:57:32.364Z,10.98
2022-12-22T22:59:59.184Z,11.02
2022-12-22T23:02:26.184Z,10.35
2022-12-22T23:04:53.358Z,10.65
2022-12-22T23:07:20.197Z,10.32
2022-12-22T23:09:47.026Z,9.73
2022-12-22T23:12:13.986Z,10.77
2022-12-22T23:14:40.837Z,12.95
2022-12-22T23:17:07.684Z,9.35
2022-12-22T23:19:34.843Z,10.00
2022-12-22T23:22:01.814Z,10.20
2022-12-22T23:24:28.619Z,10.20
2022-12-22T23:26:55.427Z,10.65
2022-12-22T23:29:22.236Z,9.98
2022-12-22T23:31:49.198Z,10.25
2022-12-22T23:34:16.328Z,9.70
2022-12-22T23:36:43.234Z,11.95
2022-12-22T23:39:10.115Z,10.73
2022-12-22T23:41:37.001Z,9.25
2022-12-22T23:44:03.893Z,9.70
2022-12-22T23:46:30.819Z,10.45
2022-12-22T23:48:58.322Z,10.98
2022-12-22T23:51:28.148Z,10.70
2022-12-22T23:53:56.639Z,11.68
2022-12-22T23:56:23.559Z,10.65
2022-12-22T23:58:54.506Z,11.98
